createdAt,value
2023-01-17T00:01:49.335Z,3.78
2023-01-17T00:04:34.874Z,3.92
2023-01-17T00:07:20.295Z,3.38
2023-01-17T00:09:53.060Z,4.03
2023-01-17T00:12:20.735Z,3.88
2023-01-17T00:14:48.052Z,3.90
2023-01-17T00:17:14.963Z,3.50
2023-01-17T00:20:00.248Z,4.00
2023-01-17T00:22:47.656Z,4.20
2023-01-17T00:25:35.406Z,3.92
2023-01-17T00:28:02.376Z,3.60
2023-01-17T00:30:29.255Z,4.10
2023-01-17T00:32:56.186Z,3.88
2023-01-17T00:35:23.721Z,3.72
2023-01-17T00:38:01.824Z,4.18
2023-01-17T00:40:28.682Z,3.83
2023-01-17T00:43:13.944Z,3.45
2023-01-17T00:46:00.867Z,3.63
2023-01-17T00:48:46.221Z,3.70
2023-01-17T00:51:31.557Z,4.25
2023-01-17T00:54:18.893Z,3.85
2023-01-17T00:57:04.407Z,4.05
2023-01-17T00:59:49.806Z,3.83
2023-01-17T01:02:35.221Z,4.32
2023-01-17T01:05:20.647Z,3.90
2023-01-17T01:08:05.961Z,4.20
2023-01-17T01:10:51.680Z,3.58
2023-01-17T01:13:37.525Z,3.85
2023-01-17T01:16:23.030Z,3.75
2023-01-17T01:19:08.489Z,4.80
2023-01-17T01:21:53.899Z,3.83
2023-01-17T01:24:39.628Z,3.70
2023-01-17T01:27:25.342Z,3.50
2023-01-17T01:30:10.714Z,3.88
2023-01-17T01:32:56.326Z,3.85
2023-01-17T01:35:23.254Z,3.78
2023-01-17T01:37:50.167Z,3.42
2023-01-17T01:40:17.871Z,3.72
2023-01-17T01:42:58.232Z,3.40
2023-01-17T01:45:27.168Z,4.22
2023-01-17T01:48:02.708Z,3.65
2023-01-17T01:50:30.569Z,3.53
2023-01-17T01:53:00.112Z,3.70
2023-01-17T01:55:40.581Z,3.65
2023-01-17T01:58:16.301Z,3.70
2023-01-17T02:00:43.235Z,3.25
2023-01-17T02:03:30.655Z,3.30
2023-01-17T02:06:01.450Z,3.60
2023-01-17T02:08:28.299Z,3.10
2023-01-17T02:10:55.094Z,3.33
2023-01-17T02:13:22.026Z,3.47
2023-01-17T02:16:23.665Z,3.70
2023-01-17T02:19:21.234Z,3.65
2023-01-17T02:21:54.294Z,3.17
2023-01-17T02:24:34.887Z,3.72
2023-01-17T02:27:23.702Z,3.30
2023-01-17T02:30:18.846Z,3.22
2023-01-17T02:33:09.829Z,3.67
2023-01-17T02:35:45.911Z,3.15
2023-01-17T02:38:37.226Z,3.65
2023-01-17T02:41:07.915Z,3.17
2023-01-17T02:43:35.927Z,3.70
2023-01-17T02:46:02.928Z,3.42
2023-01-17T02:48:31.527Z,3.47
2023-01-17T02:51:13.702Z,3.50
2023-01-17T02:54:11.329Z,4.22
2023-01-17T02:56:46.720Z,2.97
2023-01-17T02:59:38.552Z,3.35
2023-01-17T03:02:22.611Z,3.08
2023-01-17T03:04:56.593Z,2.70
2023-01-17T03:07:25.983Z,3.42
2023-01-17T03:09:56.235Z,2.75
2023-01-17T03:12:23.129Z,3.30
2023-01-17T03:14:50.027Z,2.75
2023-01-17T03:17:16.905Z,3.10
2023-01-17T03:19:43.770Z,3.05
2023-01-17T03:22:10.696Z,3.00
2023-01-17T03:24:37.498Z,2.92
2023-01-17T03:27:04.419Z,3.00
2023-01-17T03:29:31.278Z,2.70
2023-01-17T03:31:58.307Z,2.60
2023-01-17T03:34:25.365Z,2.78
2023-01-17T03:36:52.169Z,3.28
2023-01-17T03:39:19.008Z,2.70
2023-01-17T03:41:45.789Z,3.00
2023-01-17T03:44:12.619Z,2.88
2023-01-17T03:46:39.432Z,2.47
2023-01-17T03:49:06.298Z,2.65
2023-01-17T03:51:33.080Z,2.40
2023-01-17T03:53:59.932Z,2.80
2023-01-17T03:56:26.816Z,2.33
2023-01-17T03:58:53.716Z,2.70
2023-01-17T04:01:20.548Z,2.65
2023-01-17T04:03:47.400Z,2.70
2023-01-17T04:06:14.216Z,2.67
2023-01-17T04:08:41.642Z,2.97
2023-01-17T04:11:08.471Z,2.72
2023-01-17T04:13:35.322Z,2.50
2023-01-17T04:16:02.107Z,2.42
2023-01-17T04:18:28.976Z,3.28
2023-01-17T04:20:55.761Z,2.40
2023-01-17T04:23:22.585Z,2.72
2023-01-17T04:25:49.404Z,2.53
2023-01-17T04:28:16.460Z,2.70
2023-01-17T04:30:43.363Z,2.50
2023-01-17T04:33:10.271Z,2.58
2023-01-17T04:35:37.157Z,2.90
2023-01-17T04:38:04.061Z,2.50
2023-01-17T04:40:30.919Z,3.08
2023-01-17T04:42:58.200Z,2.45
2023-01-17T04:45:25.091Z,2.60
2023-01-17T04:47:51.984Z,2.60
2023-01-17T04:50:18.865Z,2.47
2023-01-17T04:52:45.689Z,3.15
2023-01-17T04:55:12.519Z,2.60
2023-01-17T04:57:39.319Z,2.95
2023-01-17T05:00:06.912Z,2.47
2023-01-17T05:02:33.870Z,3.00
2023-01-17T05:05:00.799Z,2.95
2023-01-17T05:07:27.585Z,2.80
2023-01-17T05:09:54.444Z,2.50
2023-01-17T05:12:21.285Z,2.60
2023-01-17T05:14:48.121Z,2.50
2023-01-17T05:17:14.950Z,2.78
2023-01-17T05:19:41.776Z,2.90
2023-01-17T05:22:15.310Z,2.55
2023-01-17T05:24:46.443Z,2.70
2023-01-17T05:27:13.898Z,2.90
2023-01-17T05:29:40.868Z,2.78
2023-01-17T05:32:07.790Z,3.08
2023-01-17T05:34:35.071Z,3.05
2023-01-17T05:37:02.010Z,2.63
2023-01-17T05:39:30.852Z,2.80
2023-01-17T05:41:58.189Z,2.40
2023-01-17T05:44:25.095Z,2.60
2023-01-17T05:46:51.902Z,2.60
2023-01-17T05:49:18.708Z,2.42
2023-01-17T05:51:45.660Z,2.47
2023-01-17T05:54:12.432Z,2.70
2023-01-17T05:56:39.310Z,2.60
2023-01-17T05:59:06.168Z,3.10
2023-01-17T06:01:33.014Z,2.50
2023-01-17T06:03:59.912Z,2.50
2023-01-17T06:06:29.876Z,2.50
2023-01-17T06:08:56.766Z,2.60
2023-01-17T06:11:23.620Z,2.83
2023-01-17T06:13:50.520Z,2.65
2023-01-17T06:16:17.454Z,2.60
2023-01-17T06:18:44.408Z,2.88
2023-01-17T06:21:11.176Z,2.60
2023-01-17T06:23:38.103Z,2.70
2023-01-17T06:26:05.065Z,2.45
2023-01-17T06:28:31.983Z,2.40
2023-01-17T06:30:59.895Z,2.63
2023-01-17T06:33:27.122Z,2.50
2023-01-17T06:35:54.198Z,2.58
2023-01-17T06:38:21.229Z,2.47
2023-01-17T06:40:48.210Z,2.40
2023-01-17T06:43:15.113Z,2.42
2023-01-17T06:45:41.931Z,2.42
2023-01-17T06:48:08.768Z,2.90
2023-01-17T06:50:35.660Z,2.47
2023-01-17T06:53:04.258Z,2.67
2023-01-17T06:55:34.448Z,2.65
2023-01-17T06:58:02.608Z,2.45
2023-01-17T07:00:30.699Z,2.40
2023-01-17T07:02:59.373Z,2.55
2023-01-17T07:05:27.331Z,2.50
2023-01-17T07:07:54.255Z,2.67
2023-01-17T07:10:21.254Z,2.60
2023-01-17T07:12:48.261Z,2.70
2023-01-17T07:15:15.238Z,2.85
2023-01-17T07:17:42.201Z,2.92
2023-01-17T07:20:09.723Z,2.60
2023-01-17T07:22:37.913Z,2.85
2023-01-17T07:25:05.246Z,3.30
2023-01-17T07:27:38.001Z,2.75
2023-01-17T07:30:05.289Z,3.25
2023-01-17T07:32:32.158Z,2.95
2023-01-17T07:34:58.989Z,2.50
2023-01-17T07:37:28.720Z,2.67
2023-01-17T07:39:55.706Z,2.60
2023-01-17T07:42:24.204Z,3.00
2023-01-17T07:44:51.278Z,3.17
2023-01-17T07:47:18.113Z,3.10
2023-01-17T07:49:45.162Z,4.22
2023-01-17T07:52:12.038Z,2.80
2023-01-17T07:54:38.950Z,3.47
2023-01-17T07:57:06.001Z,3.15
2023-01-17T07:59:34.475Z,3.13
2023-01-17T08:02:01.425Z,3.17
2023-01-17T08:04:34.611Z,4.00
2023-01-17T08:07:01.842Z,3.58
2023-01-17T08:09:28.827Z,3.40
2023-01-17T08:11:55.757Z,3.25
2023-01-17T08:14:22.735Z,3.30
2023-01-17T08:16:49.799Z,3.33
2023-01-17T08:19:17.170Z,3.40
2023-01-17T08:21:44.167Z,3.72
2023-01-17T08:24:14.160Z,3.60
2023-01-17T08:26:41.262Z,3.20
2023-01-17T08:29:08.232Z,3.70
2023-01-17T08:31:35.405Z,3.00
2023-01-17T08:34:02.368Z,3.30
2023-01-17T08:36:31.204Z,3.13
2023-01-17T08:38:58.165Z,2.90
2023-01-17T08:41:27.411Z,3.80
2023-01-17T08:43:54.293Z,3.60
2023-01-17T08:46:21.248Z,3.30
2023-01-17T08:48:48.102Z,4.50
2023-01-17T08:51:14.944Z,3.60
2023-01-17T08:53:42.468Z,4.10
2023-01-17T08:56:09.404Z,3.40
2023-01-17T08:58:36.450Z,3.60
2023-01-17T09:01:04.284Z,3.92
2023-01-17T09:03:31.676Z,3.80
2023-01-17T09:06:08.967Z,3.25
2023-01-17T09:08:36.208Z,3.50
2023-01-17T09:11:07.423Z,3.25
2023-01-17T09:13:34.591Z,3.40
2023-01-17T09:16:02.026Z,3.20
2023-01-17T09:18:29.500Z,3.20
2023-01-17T09:20:59.051Z,3.65
2023-01-17T09:23:27.297Z,3.50
2023-01-17T09:25:58.063Z,3.53
2023-01-17T09:28:25.690Z,3.88
2023-01-17T09:30:53.084Z,3.25
2023-01-17T09:33:20.105Z,3.40
2023-01-17T09:35:47.089Z,3.40
2023-01-17T09:38:13.977Z,3.20
2023-01-17T09:40:47.744Z,3.30
2023-01-17T09:43:23.509Z,3.80
2023-01-17T09:45:50.430Z,3.78
2023-01-17T09:48:24.565Z,3.90
2023-01-17T09:50:54.748Z,3.85
2023-01-17T09:53:21.728Z,3.70
2023-01-17T09:56:12.223Z,3.95
2023-01-17T09:58:47.966Z,3.33
2023-01-17T10:01:47.957Z,3.47
2023-01-17T10:04:18.387Z,3.15
2023-01-17T10:07:10.303Z,3.10
2023-01-17T10:09:49.129Z,4.20
2023-01-17T10:12:28.560Z,3.83
2023-01-17T10:15:13.481Z,3.83
2023-01-17T10:18:28.856Z,4.50
2023-01-17T10:21:04.669Z,4.13
2023-01-17T10:23:50.163Z,4.43
2023-01-17T10:26:18.883Z,4.93
2023-01-17T10:28:51.315Z,5.78
2023-01-17T10:31:22.768Z,5.72
2023-01-17T10:33:54.000Z,6.07
2023-01-17T10:36:24.630Z,6.15
2023-01-17T10:39:02.856Z,4.68
2023-01-17T10:41:31.936Z,5.25
2023-01-17T10:44:04.651Z,5.13
2023-01-17T10:46:47.582Z,5.32
2023-01-17T10:49:21.667Z,5.78
2023-01-17T10:52:00.380Z,5.18
2023-01-17T10:54:41.988Z,5.68
2023-01-17T10:57:39.879Z,5.65
2023-01-17T11:00:40.267Z,6.10
2023-01-17T11:03:07.652Z,5.60
2023-01-17T11:05:34.564Z,6.28
2023-01-17T11:08:06.125Z,6.70
2023-01-17T11:10:37.979Z,6.28
2023-01-17T11:13:17.373Z,5.97
2023-01-17T11:15:47.520Z,6.05
2023-01-17T11:18:15.978Z,6.68
2023-01-17T11:20:45.915Z,7.25
2023-01-17T11:23:20.999Z,6.25
2023-01-17T11:25:58.645Z,6.80
2023-01-17T11:28:45.980Z,7.18
2023-01-17T11:31:16.691Z,6.57
2023-01-17T11:33:49.145Z,7.75
2023-01-17T11:36:21.092Z,7.45
2023-01-17T11:38:56.537Z,8.20
2023-01-17T11:41:24.384Z,8.18
2023-01-17T11:43:52.274Z,8.48
2023-01-17T11:46:20.441Z,7.75
2023-01-17T11:48:56.285Z,8.25
2023-01-17T11:51:39.237Z,7.88
2023-01-17T11:56:36.670Z,7.70
2023-01-17T11:59:22.254Z,7.20
2023-01-17T12:01:58.350Z,7.45
2023-01-17T12:04:27.723Z,7.70
2023-01-17T12:06:58.674Z,7.80
2023-01-17T12:09:31.707Z,6.80
2023-01-17T12:12:41.562Z,7.90
2023-01-17T12:15:20.679Z,7.55
2023-01-17T12:17:53.816Z,6.63
2023-01-17T12:20:26.160Z,6.90
2023-01-17T12:22:59.788Z,7.10
2023-01-17T12:25:59.217Z,6.57
2023-01-17T12:28:56.831Z,6.18
2023-01-17T12:31:33.409Z,5.80
2023-01-17T12:34:31.656Z,5.80
2023-01-17T12:37:02.227Z,7.15
2023-01-17T12:39:42.196Z,7.80
2023-01-17T12:42:20.880Z,7.13
2023-01-17T12:44:57.943Z,8.07
2023-01-17T12:47:24.941Z,7.05
2023-01-17T12:50:24.064Z,6.65
2023-01-17T12:53:18.806Z,6.60
2023-01-17T12:55:55.444Z,7.55
2023-01-17T12:58:24.951Z,7.18
2023-01-17T13:01:13.861Z,7.75
2023-01-17T13:03:43.601Z,6.75
2023-01-17T13:06:12.279Z,7.80
2023-01-17T13:08:44.124Z,7.90
2023-01-17T13:11:28.608Z,8.82
2023-01-17T13:13:57.593Z,7.95
2023-01-17T13:16:32.075Z,7.95
2023-01-17T13:19:03.194Z,6.75
2023-01-17T13:21:31.502Z,7.35
2023-01-17T13:24:05.980Z,7.50
2023-01-17T13:26:48.998Z,7.97
2023-01-17T13:29:29.966Z,7.95
2023-01-17T13:32:29.084Z,7.57
2023-01-17T13:35:21.587Z,7.45
2023-01-17T13:37:58.510Z,7.78
2023-01-17T13:40:53.432Z,9.07
2023-01-17T13:44:08.865Z,9.10
2023-01-17T13:46:53.993Z,8.88
2023-01-17T13:49:41.237Z,8.90
2023-01-17T13:52:11.117Z,10.30
2023-01-17T13:54:44.866Z,10.90
2023-01-17T13:57:24.625Z,10.52
2023-01-17T13:59:58.675Z,10.95
2023-01-17T14:02:38.834Z,11.70
2023-01-17T14:05:07.427Z,13.23
2023-01-17T14:07:36.052Z,12.68
2023-01-17T14:10:24.637Z,13.02
2023-01-17T14:12:51.795Z,13.60
2023-01-17T14:15:23.117Z,13.25
2023-01-17T14:17:58.208Z,13.55
2023-01-17T14:20:35.379Z,13.77
2023-01-17T14:23:03.998Z,13.73
2023-01-17T14:25:40.407Z,14.32
2023-01-17T14:28:29.358Z,13.95
2023-01-17T14:30:57.568Z,13.65
2023-01-17T14:33:34.849Z,14.25
2023-01-17T14:36:04.758Z,14.18
2023-01-17T14:38:32.925Z,13.57
2023-01-17T14:41:03.551Z,14.77
2023-01-17T14:43:32.938Z,14.57
2023-01-17T14:46:04.989Z,14.15
2023-01-17T14:48:31.929Z,14.60
2023-01-17T14:51:01.898Z,14.93
2023-01-17T14:53:32.190Z,14.27
2023-01-17T14:56:16.818Z,14.88
2023-01-17T14:58:46.465Z,15.15
2023-01-17T15:01:18.687Z,15.20
2023-01-17T15:03:50.176Z,14.38
2023-01-17T15:06:22.314Z,16.00
2023-01-17T15:08:49.338Z,14.70
2023-01-17T15:11:18.822Z,14.48
2023-01-17T15:13:47.473Z,14.77
2023-01-17T15:16:20.308Z,15.15
2023-01-17T15:18:47.496Z,15.25
2023-01-17T15:21:24.743Z,14.85
2023-01-17T15:23:56.735Z,14.95
2023-01-17T15:26:25.472Z,14.90
2023-01-17T15:28:52.984Z,15.77
2023-01-17T15:31:23.268Z,14.65
2023-01-17T15:33:54.768Z,15.38
2023-01-17T15:36:21.573Z,14.30
2023-01-17T15:39:00.210Z,13.68
2023-01-17T15:41:33.515Z,14.05
2023-01-17T15:44:00.565Z,14.10
2023-01-17T15:46:34.620Z,12.73
2023-01-17T15:49:24.141Z,14.25
2023-01-17T15:51:58.038Z,13.13
2023-01-17T15:54:32.473Z,13.95
2023-01-17T15:57:26.184Z,14.07
2023-01-17T15:59:53.151Z,13.50
2023-01-17T16:02:46.638Z,12.63
2023-01-17T16:05:27.584Z,12.23
2023-01-17T16:07:58.530Z,11.70
2023-01-17T16:10:31.723Z,11.07
2023-01-17T16:12:59.193Z,10.80
2023-01-17T16:15:26.295Z,11.15
2023-01-17T16:18:16.942Z,11.57
2023-01-17T16:20:48.792Z,10.98
2023-01-17T16:23:15.767Z,11.32
2023-01-17T16:25:48.012Z,10.60
2023-01-17T16:28:14.876Z,11.07
2023-01-17T16:30:41.953Z,11.77
2023-01-17T16:33:13.559Z,11.52
2023-01-17T16:35:41.060Z,12.38
2023-01-17T16:38:12.324Z,11.93
2023-01-17T16:40:40.898Z,11.52
2023-01-17T16:43:07.754Z,12.27
2023-01-17T16:45:40.101Z,11.65
2023-01-17T16:48:07.314Z,11.75
2023-01-17T16:50:34.360Z,12.38
2023-01-17T16:53:01.214Z,12.63
2023-01-17T16:55:28.144Z,12.68
2023-01-17T16:57:57.532Z,12.32
2023-01-17T17:00:24.659Z,14.48
2023-01-17T17:02:51.904Z,12.32
2023-01-17T17:05:18.943Z,12.63
2023-01-17T17:07:50.805Z,12.48
2023-01-17T17:10:19.817Z,13.20
2023-01-17T17:12:46.941Z,12.15
2023-01-17T17:15:13.905Z,11.93
2023-01-17T17:17:43.711Z,12.35
2023-01-17T17:20:14.948Z,13.25
2023-01-17T17:22:45.349Z,12.43
2023-01-17T17:25:14.459Z,12.88
2023-01-17T17:27:41.471Z,12.43
2023-01-17T17:30:09.330Z,12.40
2023-01-17T17:32:36.338Z,13.75
2023-01-17T17:35:03.514Z,14.13
2023-01-17T17:37:30.543Z,13.48
2023-01-17T17:39:57.774Z,13.48
2023-01-17T17:42:24.692Z,13.88
2023-01-17T17:44:51.707Z,14.73
2023-01-17T17:47:18.651Z,14.68
2023-01-17T17:49:45.514Z,14.90
2023-01-17T17:52:13.161Z,14.23
2023-01-17T17:54:40.259Z,13.80
2023-01-17T17:57:07.571Z,14.75
2023-01-17T17:59:34.573Z,13.40
2023-01-17T18:02:01.579Z,13.30
2023-01-17T18:04:28.573Z,13.20
2023-01-17T18:06:57.360Z,13.43
2023-01-17T18:09:24.425Z,13.95
2023-01-17T18:11:51.559Z,13.10
2023-01-17T18:14:21.065Z,13.40
2023-01-17T18:16:48.248Z,12.73
2023-01-17T18:19:19.872Z,12.27
2023-01-17T18:21:46.967Z,13.07
2023-01-17T18:24:14.732Z,12.80
2023-01-17T18:26:43.342Z,13.25
2023-01-17T18:29:12.472Z,12.77
2023-01-17T18:31:39.418Z,13.65
2023-01-17T18:34:08.351Z,12.95
2023-01-17T18:36:35.689Z,14.65
2023-01-17T18:39:16.024Z,13.85
2023-01-17T18:41:42.872Z,12.93
2023-01-17T18:44:10.289Z,13.52
2023-01-17T18:46:37.456Z,14.25
2023-01-17T18:49:04.806Z,14.27
2023-01-17T18:51:33.330Z,13.63
2023-01-17T18:54:07.167Z,13.90
2023-01-17T18:56:34.741Z,14.43
2023-01-17T18:59:02.372Z,14.10
2023-01-17T19:01:30.583Z,14.73
2023-01-17T19:03:58.813Z,15.57
2023-01-17T19:06:31.439Z,14.95
2023-01-17T19:11:25.260Z,16.35
2023-01-17T19:13:53.160Z,16.85
2023-01-17T19:16:24.945Z,15.27
2023-01-17T19:18:52.295Z,15.48
2023-01-17T19:21:23.608Z,16.00
2023-01-17T19:23:50.701Z,14.90
2023-01-17T19:26:19.829Z,14.57
2023-01-17T19:28:47.568Z,14.13
2023-01-17T19:31:15.450Z,14.15
2023-01-17T19:33:43.696Z,14.65
2023-01-17T19:36:14.420Z,15.38
2023-01-17T19:38:42.865Z,15.18
2023-01-17T19:41:23.632Z,14.13
2023-01-17T19:43:54.834Z,14.65
2023-01-17T19:46:22.397Z,13.85
2023-01-17T19:48:49.451Z,15.27
2023-01-17T19:51:16.766Z,15.38
2023-01-17T19:53:43.790Z,15.88
2023-01-17T19:56:11.677Z,16.52
2023-01-17T19:58:38.794Z,15.60
2023-01-17T20:01:10.629Z,16.48
2023-01-17T20:03:38.104Z,15.82
2023-01-17T20:06:06.600Z,16.17
2023-01-17T20:08:34.260Z,17.05
2023-01-17T20:11:02.747Z,16.55
2023-01-17T20:13:29.801Z,17.85
2023-01-17T20:15:59.313Z,17.88
2023-01-17T20:18:26.443Z,17.35
2023-01-17T20:20:57.347Z,16.70
2023-01-17T20:23:24.547Z,17.50
2023-01-17T20:26:01.907Z,19.35
2023-01-17T20:28:29.313Z,19.92
2023-01-17T20:30:56.395Z,20.38
2023-01-17T20:33:24.288Z,19.10
2023-01-17T20:36:04.853Z,19.52
2023-01-17T20:38:45.392Z,18.73
2023-01-17T20:41:25.165Z,18.85
2023-01-17T20:43:53.644Z,19.45
2023-01-17T20:46:21.542Z,16.48
2023-01-17T20:48:52.621Z,18.20
2023-01-17T20:51:19.691Z,16.45
2023-01-17T20:53:50.230Z,15.63
2023-01-17T20:56:18.166Z,15.90
2023-01-17T20:58:45.571Z,16.40
2023-01-17T21:01:13.738Z,15.68
2023-01-17T21:03:40.903Z,15.70
2023-01-17T21:06:09.259Z,14.88
2023-01-17T21:08:37.993Z,16.88
2023-01-17T21:11:05.294Z,14.98
2023-01-17T21:13:32.267Z,14.77
2023-01-17T21:15:59.516Z,15.45
2023-01-17T21:18:27.153Z,16.10
2023-01-17T21:20:54.047Z,14.25
2023-01-17T21:23:21.210Z,14.13
2023-01-17T21:25:55.805Z,13.13
2023-01-17T21:28:27.328Z,13.35
2023-01-17T21:30:54.413Z,12.20
2023-01-17T21:33:22.183Z,14.20
2023-01-17T21:35:49.402Z,13.85
2023-01-17T21:38:16.420Z,12.73
2023-01-17T21:40:43.520Z,12.63
2023-01-17T21:43:11.012Z,12.00
2023-01-17T21:45:41.404Z,13.32
2023-01-17T21:48:12.228Z,12.70
2023-01-17T21:50:39.365Z,12.35
2023-01-17T21:53:06.756Z,11.90
2023-01-17T21:55:52.150Z,11.95
2023-01-17T21:58:37.575Z,11.90
2023-01-17T22:01:21.762Z,11.30
2023-01-17T22:03:49.976Z,12.38
2023-01-17T22:06:20.429Z,10.93
2023-01-17T22:08:47.467Z,11.18
2023-01-17T22:11:20.933Z,10.77
2023-01-17T22:13:47.860Z,11.55
2023-01-17T22:16:17.394Z,11.63
2023-01-17T22:18:44.699Z,10.25
2023-01-17T22:21:13.586Z,10.57
2023-01-17T22:23:44.241Z,10.32
2023-01-17T22:26:11.759Z,9.23
2023-01-17T22:28:39.572Z,9.43
2023-01-17T22:31:20.974Z,9.52
2023-01-17T22:33:48.278Z,8.63
2023-01-17T22:36:15.280Z,9.20
2023-01-17T22:38:43.122Z,9.20
2023-01-17T22:41:16.085Z,8.13
2023-01-17T22:43:47.822Z,8.63
2023-01-17T22:46:16.402Z,8.90
2023-01-17T22:48:43.473Z,9.00
2023-01-17T22:51:12.014Z,8.63
2023-01-17T22:53:48.438Z,8.45
2023-01-17T22:56:20.089Z,8.90
2023-01-17T22:58:48.825Z,8.13
2023-01-17T23:01:17.565Z,8.23
2023-01-17T23:03:44.968Z,8.00
2023-01-17T23:06:21.717Z,8.20
2023-01-17T23:08:50.162Z,8.63
2023-01-17T23:11:39.764Z,7.38
2023-01-17T23:14:15.695Z,7.47
2023-01-17T23:17:17.607Z,7.70
2023-01-17T23:19:51.376Z,7.95
2023-01-17T23:22:23.074Z,7.05
2023-01-17T23:24:53.782Z,7.43
2023-01-17T23:27:51.946Z,7.72
2023-01-17T23:30:19.648Z,7.10
2023-01-17T23:32:50.342Z,7.68
2023-01-17T23:35:17.910Z,7.47
2023-01-17T23:38:03.271Z,7.00
2023-01-17T23:40:34.514Z,7.25
2023-01-17T23:43:20.283Z,7.85
2023-01-17T23:45:47.383Z,7.30
2023-01-17T23:48:15.928Z,6.82
2023-01-17T23:50:46.277Z,7.05
2023-01-17T23:53:24.364Z,6.45
2023-01-17T23:55:54.567Z,6.63
2023-01-17T23:58:27.543Z,6.07
